Airfield :
LOGIN :

Register | Disclaimer

   EN    FR    IT 

 










Legend :    VFR   Marginal VFR   IFR   Intensive IFR   Very Intensive IFR
Visi :
Ceiling :
>= 8 km
>= 3000ft
5 to 8 km
1000 to 3000 ft
1500m to 5 km
500 to 1000 ft
800 to 1500m
200 to 500 ft
< 800m
< 200 ft
Symbols :   Thunderstorms  Fog  Heavy snow  Heavy precipitations  Wind > 20 kt
SIGMETs :     Misc.  Thunderstorms  Icing  Turbulence  Mountain Waves  Volcanic Ashes






- Airport Elevation : 1300 ft
- IATA code : LIG


LFBL - Limoges

CURRENT METAR :
  • 192200Z AUTO 05008KT CAVOK 10/01 Q1016 NOSIG

EXPIRED METARs :
  • 192130Z AUTO 04007KT CAVOK 10/01 Q1017 NOSIG
  • 192100Z AUTO 04007KT CAVOK 11/01 Q1017 NOSIG
  • 192030Z AUTO 03006KT CAVOK 11/01 Q1017 NOSIG
  • 192000Z AUTO 03007KT CAVOK 11/01 Q1017 NOSIG
  • 191930Z AUTO 02006KT CAVOK 12/01 Q1017 NOSIG

TAF TAF LFBL
Valid from the 19 at 18:00 until the 20 at 18:00 UTC


191700Z 1918/2018 04008KT CAVOK
BECMG 2008/2010 16005KT
BECMG 2011/2013 23005KT SCT050TCU
TEMPO 2013/2018 SHRA SCT035CB BKN060
ATIS : +33 5 55 48 40 37



MET'MAP, your aeronautical weather chart ! - Copyright ORBIFLY December 2007 - Disclaimer

ORBIFLY MET'MAP TEAM :

Programming & Development : Alexandra Zaïnal
Concept & original design : Baudouin d'Aumeries
Assistance for programming : Marc-Olivier Méhu
Technical & hardware support : Manuel Goepfert

Contact : metmap@orbifly.com




SOURCES & CREDITS :

   NOAA